Time;durP1;ratioP1;P1;durP2;ratioP2;P2;SDS_P1;SDS_P2;PMS_P1;PMS_P2;Temp;Humidity;BMP_temperature;BMP_pressure;BME280_temperature;BME280_humidity;BME280_pressure;Samples;Min_cycle;Max_cycle;Signal;HPM_P1;HPM_P2
2023/10/10 00:00:35;;;;;;;8.32;3.42;;;15.20;99.90;;;;;;5036291;28;20045;-76
2023/10/10 00:03:05;;;;;;;9.50;3.47;;;15.20;99.90;;;;;;5035368;28;20048;-77
2023/10/10 00:05:36;;;;;;;9.75;3.85;;;15.30;99.90;;;;;;5035246;28;20585;-76
2023/10/10 00:08:05;;;;;;;10.40;4.07;;;15.20;99.90;;;;;;5038301;28;20395;-76
2023/10/10 00:10:31;;;;;;;4.93;3.35;;;15.20;99.90;;;;;;5040284;28;20037;-77
2023/10/10 00:13:00;;;;;;;9.75;4.05;;;15.20;99.90;;;;;;5044808;28;20400;-76
2023/10/10 00:15:33;;;;;;;7.53;4.40;;;15.30;99.90;;;;;;5031633;28;20044;-76
2023/10/10 00:18:03;;;;;;;5.20;3.33;;;15.30;99.90;;;;;;5044687;28;20152;-76
2023/10/10 00:20:41;;;;;;;7.90;3.53;;;15.30;99.90;;;;;;5025929;28;20091;-76
2023/10/10 00:23:10;;;;;;;8.40;4.00;;;15.30;99.90;;;;;;5046703;28;20041;-76
2023/10/10 00:25:38;;;;;;;5.32;3.53;;;15.20;99.90;;;;;;5034163;28;20078;-76
2023/10/10 00:28:18;;;;;;;7.47;3.53;;;15.30;99.90;;;;;;5025991;28;20047;-76
2023/10/10 00:30:45;;;;;;;9.32;4.57;;;15.30;99.90;;;;;;5029568;28;20041;-77
2023/10/10 00:33:21;;;;;;;11.48;4.60;;;15.20;99.90;;;;;;5045334;28;20033;-76
2023/10/10 00:35:47;;;;;;;;;;;15.30;99.90;;;;;;5026992;28;20111;-76
2023/10/10 00:38:19;;;;;;;7.07;3.75;;;15.20;99.90;;;;;;5044846;28;20335;-76
2023/10/10 00:40:47;;;;;;;7.20;4.45;;;15.30;99.90;;;;;;5033652;28;20041;-75
2023/10/10 00:43:17;;;;;;;6.13;3.85;;;15.30;99.90;;;;;;5039933;28;20048;-76
2023/10/10 00:45:52;;;;;;;6.13;3.70;;;15.30;99.90;;;;;;5035196;28;20045;-76
2023/10/10 00:48:21;;;;;;;10.35;3.78;;;15.30;99.90;;;;;;5055847;28;20048;-76
2023/10/10 00:50:51;;;;;;;9.82;4.00;;;15.30;99.90;;;;;;5023355;28;20462;-76
2023/10/10 00:53:21;;;;;;;7.03;3.35;;;15.30;99.90;;;;;;5039299;28;20068;-77
2023/10/10 00:55:55;;;;;;;5.15;3.63;;;15.30;99.90;;;;;;5037802;28;20041;-76
2023/10/10 00:58:24;;;;;;;9.02;3.90;;;15.30;99.90;;;;;;5033821;28;20056;-77
2023/10/10 01:00:54;;;;;;;8.70;3.60;;;15.40;99.90;;;;;;5026681;28;20647;-77
2023/10/10 01:03:20;;;;;;;10.88;3.80;;;15.40;99.90;;;;;;5037265;28;20073;-77
2023/10/10 01:05:52;;;;;;;8.27;3.65;;;15.40;99.90;;;;;;5026203;28;20072;-76
2023/10/10 01:08:19;;;;;;;6.40;3.78;;;15.40;99.90;;;;;;5038418;28;20033;-77
2023/10/10 01:10:49;;;;;;;8.98;3.65;;;15.40;99.90;;;;;;5047755;28;20044;-76
2023/10/10 01:13:16;;;;;;;4.05;3.42;;;15.40;99.90;;;;;;5043209;28;20033;-77
2023/10/10 01:15:45;;;;;;;6.22;3.08;;;15.40;99.90;;;;;;5032862;28;20079;-78
2023/10/10 01:18:13;;;;;;;6.85;3.42;;;15.40;99.90;;;;;;5033541;28;20037;-77
2023/10/10 01:20:45;;;;;;;7.93;4.22;;;15.30;99.90;;;;;;5023889;28;20075;-76
2023/10/10 01:23:14;;;;;;;6.82;3.75;;;15.30;99.90;;;;;;5045703;28;20398;-78
2023/10/10 01:28:33;;;;;;;8.02;4.00;;;15.30;99.90;;;;;;5043752;28;20461;-77
2023/10/10 01:31:05;;;;;;;6.57;3.75;;;15.30;99.90;;;;;;5041399;28;20041;-77
2023/10/10 01:36:03;;;;;;;6.68;3.40;;;15.20;99.90;;;;;;5040883;28;20051;-77
2023/10/10 01:38:56;;;;;;;8.45;3.67;;;15.30;99.90;;;;;;5030859;28;20130;-77
2023/10/10 01:41:31;;;;;;;9.45;3.92;;;15.30;99.90;;;;;;5026734;28;20041;-77
2023/10/10 01:44:13;;;;;;;7.03;3.60;;;15.20;99.90;;;;;;5035735;28;20048;-76
2023/10/10 01:46:40;;;;;;;5.93;3.10;;;15.20;99.90;;;;;;5052343;28;20060;-77
2023/10/10 01:49:13;;;;;;;6.05;3.92;;;15.20;99.90;;;;;;5062800;28;20115;-77
2023/10/10 01:51:42;;;;;;;8.07;4.55;;;15.20;99.90;;;;;;5022475;28;20431;-76
2023/10/10 01:54:18;;;;;;;5.03;3.67;;;15.20;99.90;;;;;;5052245;28;20060;-76
2023/10/10 01:56:45;;;;;;;6.15;3.97;;;15.20;99.90;;;;;;5046534;28;20122;-77
2023/10/10 01:59:19;;;;;;;7.25;3.67;;;15.20;99.90;;;;;;5037250;28;20095;-77
2023/10/10 02:01:47;;;;;;;7.45;3.90;;;15.20;99.90;;;;;;5040231;28;20047;-76
2023/10/10 02:04:14;;;;;;;6.80;3.97;;;15.20;99.90;;;;;;5043998;28;21097;-76
2023/10/10 02:06:40;;;;;;;4.82;3.35;;;15.20;99.90;;;;;;5048685;28;20049;-76
2023/10/10 02:09:19;;;;;;;9.25;3.70;;;15.20;99.90;;;;;;5038958;28;20033;-77
2023/10/10 02:11:54;;;;;;;6.20;3.60;;;15.20;99.90;;;;;;5039551;28;20112;-76
2023/10/10 02:14:25;;;;;;;8.50;4.17;;;15.20;99.90;;;;;;5046598;28;20507;-77
2023/10/10 02:16:54;;;;;;;9.10;4.68;;;15.20;99.90;;;;;;5054752;28;20306;-76
2023/10/10 02:19:36;;;;;;;6.13;3.83;;;15.20;99.90;;;;;;5039273;28;20415;-76
2023/10/10 02:24:49;;;;;;;7.55;3.78;;;15.10;99.90;;;;;;5045328;28;20048;-76
2023/10/10 02:27:19;;;;;;;9.25;3.65;;;15.20;99.90;;;;;;5047059;28;20692;-77
2023/10/10 02:29:49;;;;;;;6.30;3.70;;;15.20;99.90;;;;;;5043071;28;20069;-77
2023/10/10 02:32:21;;;;;;;7.95;4.00;;;15.20;99.90;;;;;;5031093;28;20071;-77
2023/10/10 02:35:09;;;;;;;7.68;3.63;;;15.20;99.90;;;;;;5030544;28;20510;-77
2023/10/10 02:37:44;;;;;;;5.25;3.30;;;15.10;99.90;;;;;;5039487;28;20073;-77
2023/10/10 02:40:16;;;;;;;9.45;3.72;;;15.10;99.90;;;;;;5042156;28;20045;-76
2023/10/10 02:43:17;;;;;;;6.10;3.92;;;15.10;99.90;;;;;;5036616;28;20053;-77
2023/10/10 02:45:37;;;;;;;5.70;3.55;;;15.20;99.90;;;;;;5034488;28;20049;-77
2023/10/10 02:48:07;;;;;;;5.28;2.92;;;15.10;99.90;;;;;;5048311;28;20040;-76
2023/10/10 02:50:39;;;;;;;7.85;3.80;;;15.20;99.90;;;;;;5047515;28;20037;-77
2023/10/10 02:53:08;;;;;;;6.03;3.97;;;15.10;99.90;;;;;;5044537;28;20668;-77
2023/10/10 02:55:41;;;;;;;6.30;3.67;;;15.20;99.90;;;;;;5038417;28;20041;-77
2023/10/10 02:58:20;;;;;;;7.28;3.33;;;15.10;99.90;;;;;;5030084;28;20075;-76
2023/10/10 03:00:50;;;;;;;5.75;3.63;;;15.10;99.90;;;;;;5031869;28;20111;-76
2023/10/10 03:03:18;;;;;;;6.18;3.78;;;15.00;99.90;;;;;;5047433;28;20045;-76
2023/10/10 03:05:50;;;;;;;6.45;3.05;;;15.00;99.90;;;;;;5057172;28;20073;-77
2023/10/10 03:08:26;;;;;;;6.00;3.08;;;15.00;99.90;;;;;;5042488;28;20072;-76
2023/10/10 03:10:59;;;;;;;8.93;4.03;;;14.90;99.90;;;;;;5045323;28;20041;-76
2023/10/10 03:13:45;;;;;;;5.15;3.25;;;15.00;99.90;;;;;;5031005;28;20060;-76
2023/10/10 03:16:31;;;;;;;6.28;3.75;;;14.90;99.90;;;;;;5042370;28;20052;-76
2023/10/10 03:24:29;;;;;;;6.25;2.97;;;15.00;99.90;;;;;;5051070;28;20060;-76
2023/10/10 03:27:11;;;;;;;7.13;3.38;;;15.00;99.90;;;;;;5024998;28;20033;-76
2023/10/10 03:29:46;;;;;;;5.88;3.72;;;15.00;99.90;;;;;;5036089;28;20036;-76
2023/10/10 03:32:59;;;;;;;7.45;3.53;;;15.00;99.90;;;;;;5057806;28;20123;-76
2023/10/10 03:35:13;;;;;;;9.68;4.05;;;15.00;99.90;;;;;;5029678;28;20041;-77
2023/10/10 03:37:53;;;;;;;7.47;3.63;;;15.00;99.90;;;;;;5035176;28;20040;-76
2023/10/10 03:40:37;;;;;;;8.18;3.78;;;15.00;99.90;;;;;;5039788;28;20096;-76
2023/10/10 05:24:43;;;;;;;15.00;9.30;;;14.90;99.90;;;;;;5042694;28;20482;-77
2023/10/10 05:27:11;;;;;;;16.98;9.13;;;14.90;99.90;;;;;;5020428;28;20033;-76
2023/10/10 05:29:36;;;;;;;17.10;9.52;;;14.90;99.90;;;;;;5043878;28;20041;-77
2023/10/10 05:32:08;;;;;;;16.15;8.95;;;14.90;99.90;;;;;;5044831;28;20040;-77
2023/10/10 05:34:34;;;;;;;23.80;10.32;;;14.90;99.90;;;;;;5033919;28;20437;-77
2023/10/10 05:37:00;;;;;;;19.58;10.65;;;14.90;99.90;;;;;;5038450;28;20417;-77
2023/10/10 05:39:32;;;;;;;19.92;10.95;;;14.80;99.90;;;;;;5042240;28;20040;-78
2023/10/10 05:41:59;;;;;;;22.95;12.05;;;14.80;99.90;;;;;;5023187;28;20037;-76
2023/10/10 05:44:29;;;;;;;21.65;11.40;;;14.80;99.90;;;;;;5026510;28;20045;-78
2023/10/10 05:46:55;;;;;;;20.83;11.70;;;14.70;99.90;;;;;;5026795;28;20152;-77
2023/10/10 05:49:21;;;;;;;22.30;12.45;;;14.70;99.90;;;;;;5024279;28;20146;-76
2023/10/10 05:51:47;;;;;;;21.33;11.90;;;14.60;99.90;;;;;;5042304;28;20099;-76
2023/10/10 05:54:12;;;;;;;21.98;11.77;;;14.60;99.90;;;;;;5041461;28;20057;-77
2023/10/10 05:56:38;;;;;;;23.83;12.15;;;14.60;99.90;;;;;;5029740;28;20127;-77
2023/10/10 05:59:04;;;;;;;21.50;11.13;;;14.50;99.90;;;;;;5033568;28;20659;-76
2023/10/10 06:01:35;;;;;;;24.83;12.30;;;14.50;99.90;;;;;;5032012;28;20594;-75
2023/10/10 06:04:01;;;;;;;23.58;11.40;;;14.50;99.90;;;;;;5035886;28;20048;-75
2023/10/10 06:06:28;;;;;;;18.92;11.10;;;14.50;99.90;;;;;;5043066;28;20053;-76
2023/10/10 06:09:00;;;;;;;24.35;12.18;;;14.50;99.90;;;;;;5057147;28;20194;-75
2023/10/10 06:11:27;;;;;;;34.20;12.27;;;14.40;99.90;;;;;;5044786;28;20041;-75
2023/10/10 06:13:53;;;;;;;21.42;11.75;;;14.50;99.90;;;;;;5028777;28;20779;-76
2023/10/10 06:16:19;;;;;;;21.33;10.90;;;14.50;99.90;;;;;;5044631;28;20057;-76
2023/10/10 06:18:47;;;;;;;20.77;10.90;;;14.50;99.90;;;;;;5043422;28;20051;-75
2023/10/10 06:21:16;;;;;;;21.02;11.07;;;14.40;99.90;;;;;;5026851;28;20108;-76
2023/10/10 06:23:44;;;;;;;23.80;11.35;;;14.50;99.90;;;;;;5028613;28;20377;-76
2023/10/10 06:26:12;;;;;;;22.67;11.02;;;14.50;99.90;;;;;;5043243;28;20506;-76
2023/10/10 06:28:47;;;;;;;21.50;11.70;;;14.50;99.90;;;;;;5041541;28;20040;-76
2023/10/10 06:31:19;;;;;;;24.65;11.60;;;14.60;99.90;;;;;;5025214;28;20582;-76
2023/10/10 06:33:49;;;;;;;21.27;12.50;;;14.60;99.90;;;;;;5045268;28;20051;-76
2023/10/10 06:38:59;;;;;;;22.20;11.60;;;14.70;99.90;;;;;;5047289;28;20063;-76
2023/10/10 06:41:27;;;;;;;21.25;11.85;;;14.80;99.90;;;;;;5044869;28;20040;-76
2023/10/10 06:43:53;;;;;;;24.52;11.98;;;14.90;99.90;;;;;;5029205;28;20045;-77
2023/10/10 06:46:18;;;;;;;21.80;11.23;;;15.00;99.90;;;;;;5017576;28;20040;-76
2023/10/10 06:48:47;;;;;;;19.83;10.55;;;15.10;99.90;;;;;;5046788;28;20142;-76
2023/10/10 06:51:19;;;;;;;20.70;11.65;;;15.20;99.90;;;;;;5058162;28;20053;-76
2023/10/10 06:53:45;;;;;;;21.63;12.43;;;15.30;99.90;;;;;;5044590;28;20045;-76
2023/10/10 06:56:43;;;;;;;19.55;11.60;;;15.40;99.90;;;;;;5041975;28;20545;-77
2023/10/10 06:59:02;;;;;;;23.17;11.95;;;15.40;99.90;;;;;;5047841;28;20029;-76
2023/10/10 07:01:28;;;;;;;18.35;11.23;;;15.40;99.90;;;;;;5046796;28;20048;-76
2023/10/10 07:03:54;;;;;;;23.83;11.38;;;15.50;99.90;;;;;;5041480;28;20536;-76
2023/10/10 07:06:23;;;;;;;21.38;11.70;;;15.50;99.90;;;;;;5046212;28;20134;-77
2023/10/10 07:09:14;;;;;;;17.95;11.35;;;15.60;99.90;;;;;;5038937;28;20107;-76
2023/10/10 07:11:39;;;;;;;23.30;11.75;;;15.70;99.90;;;;;;5046137;28;20039;-76
2023/10/10 07:14:08;;;;;;;19.40;11.73;;;15.80;99.90;;;;;;5046975;28;20167;-76
2023/10/10 07:16:34;;;;;;;23.52;11.95;;;15.80;99.90;;;;;;5039405;28;20045;-76
2023/10/10 07:19:18;;;;;;;20.67;12.23;;;15.90;99.90;;;;;;5043453;28;20163;-76
2023/10/10 07:21:47;;;;;;;21.83;12.80;;;15.90;99.90;;;;;;5033901;28;20060;-76
2023/10/10 07:24:14;;;;;;;24.83;12.60;;;16.00;99.90;;;;;;5018538;28;20043;-76
2023/10/10 07:26:46;;;;;;;31.05;13.88;;;16.00;99.90;;;;;;5046318;28;20045;-76
2023/10/10 07:29:27;;;;;;;25.92;13.82;;;16.00;99.90;;;;;;5026221;28;20428;-75
2023/10/10 07:32:16;;;;;;;29.67;14.55;;;16.10;99.90;;;;;;5031650;28;20037;-74
2023/10/10 07:34:51;;;;;;;27.67;15.25;;;16.10;99.90;;;;;;5045161;28;20028;-74
2023/10/10 07:37:18;;;;;;;29.17;15.57;;;16.20;99.90;;;;;;5047142;28;20036;-74
2023/10/10 07:40:04;;;;;;;31.08;15.23;;;16.20;99.90;;;;;;5024789;28;20052;-74
2023/10/10 07:42:30;;;;;;;29.45;15.80;;;16.30;99.90;;;;;;5044216;28;20076;-74
2023/10/10 07:45:13;;;;;;;27.35;14.95;;;16.40;99.90;;;;;;5045509;28;20051;-75
2023/10/10 07:50:27;;;;;;;28.65;15.35;;;16.50;99.90;;;;;;5050636;28;20034;-74
2023/10/10 07:52:55;;;;;;;27.45;16.13;;;16.60;99.90;;;;;;5025639;28;20049;-74
2023/10/10 07:55:32;;;;;;;32.22;17.13;;;16.60;99.90;;;;;;5036218;28;20041;-74
2023/10/10 07:58:06;;;;;;;33.50;17.48;;;16.70;99.90;;;;;;5044475;28;20411;-74
2023/10/10 08:00:39;;;;;;;32.72;18.50;;;16.80;99.90;;;;;;5033953;28;20120;-74
2023/10/10 08:03:12;;;;;;;35.80;18.58;;;16.90;99.90;;;;;;5043402;28;20079;-74
2023/10/10 08:05:40;;;;;;;36.10;19.23;;;17.00;99.90;;;;;;5042098;28;20045;-74
2023/10/10 08:08:05;;;;;;;42.90;20.13;;;17.00;99.90;;;;;;5027380;28;20029;-74
2023/10/10 08:10:38;;;;;;;39.75;20.27;;;17.00;99.90;;;;;;5040477;28;20038;-74
2023/10/10 08:13:10;;;;;;;38.25;20.08;;;17.00;99.90;;;;;;5025723;28;20048;-74
2023/10/10 08:15:49;;;;;;;39.38;19.50;;;17.00;99.90;;;;;;5029435;28;20167;-74
2023/10/10 08:18:39;;;;;;;41.47;20.58;;;17.10;99.90;;;;;;5039372;28;20056;-74
2023/10/10 08:23:27;;;;;;;41.42;22.95;;;17.40;99.90;;;;;;5053015;28;20061;-74
2023/10/10 08:25:53;;;;;;;42.22;21.55;;;17.50;99.90;;;;;;5027862;28;20041;-74
2023/10/10 08:28:21;;;;;;;40.20;21.95;;;17.60;99.90;;;;;;5042909;28;20033;-74
2023/10/10 08:30:48;;;;;;;39.63;22.02;;;17.70;99.90;;;;;;5047229;28;20045;-74
2023/10/10 08:33:14;;;;;;;43.05;21.50;;;17.90;99.90;;;;;;5021249;28;20052;-74
2023/10/10 08:35:42;;;;;;;44.40;22.27;;;17.90;99.90;;;;;;5025826;28;20036;-74
2023/10/10 08:38:19;;;;;;;47.83;21.35;;;18.00;99.90;;;;;;5044713;28;20048;-74
2023/10/10 08:41:08;;;;;;;40.55;21.05;;;18.10;99.90;;;;;;5046013;28;20044;-74
2023/10/10 08:43:42;;;;;;;39.58;21.15;;;18.20;99.90;;;;;;5040633;28;20795;-74
2023/10/10 08:46:12;;;;;;;36.10;19.60;;;18.20;99.90;;;;;;5040122;28;20064;-74
2023/10/10 08:48:39;;;;;;;33.95;20.63;;;18.10;99.70;;;;;;5037199;28;20511;-74
2023/10/10 08:51:05;;;;;;;39.70;21.30;;;18.20;99.90;;;;;;5038194;28;20069;-74
2023/10/10 08:53:35;;;;;;;40.95;20.83;;;18.30;97.10;;;;;;5021680;28;20460;-74
2023/10/10 08:56:02;;;;;;;36.13;18.98;;;18.40;91.60;;;;;;5029422;28;20079;-74
2023/10/10 08:58:31;;;;;;;38.40;20.20;;;18.50;82.80;;;;;;5030920;28;20187;-73
2023/10/10 09:01:01;;;;;;;38.25;20.45;;;18.50;58.70;;;;;;5025421;28;20064;-74
2023/10/10 09:03:28;;;;;;;35.35;20.30;;;18.60;50.50;;;;;;5044794;28;20044;-74
2023/10/10 09:05:55;;;;;;;38.83;20.27;;;18.70;36.40;;;;;;5035671;28;20045;-74
2023/10/10 09:08:26;;;;;;;38.67;20.13;;;18.80;31.00;;;;;;5021293;28;20033;-74
2023/10/10 09:10:56;;;;;;;40.95;21.77;;;18.80;10.60;;;;;;5052832;28;20037;-74
2023/10/10 09:13:25;;;;;;;35.60;19.40;;;19.00;1.00;;;;;;5025107;28;20041;-74
2023/10/10 09:15:55;;;;;;;38.08;20.05;;;19.10;1.00;;;;;;5051847;28;20495;-73
2023/10/10 09:18:23;;;;;;;36.88;21.25;;;19.20;1.00;;;;;;5040895;28;20053;-73
2023/10/10 09:20:50;;;;;;;39.25;21.75;;;19.20;1.00;;;;;;5059268;28;20056;-73
2023/10/10 09:23:26;;;;;;;41.03;22.67;;;19.30;1.00;;;;;;5043724;28;20393;-74
2023/10/10 09:26:18;;;;;;;40.53;20.38;;;19.10;1.00;;;;;;5040570;28;20448;-74
2023/10/10 09:28:49;;;;;;;41.58;20.30;;;19.10;1.00;;;;;;5038837;28;20045;-74
2023/10/10 09:31:26;;;;;;;37.72;20.17;;;19.10;1.00;;;;;;5023870;28;20121;-74
2023/10/10 09:33:56;;;;;;;34.15;19.30;;;19.20;1.00;;;;;;5039565;28;20048;-74
2023/10/10 09:36:28;;;;;;;36.08;19.17;;;19.30;1.00;;;;;;5039738;28;20065;-75
2023/10/10 09:39:08;;;;;;;37.70;19.90;;;19.40;1.00;;;;;;5037087;28;20091;-74
2023/10/10 09:55:25;;;;;;;36.80;20.20;;;19.70;99.90;;;;;;5032264;28;20550;-74
2023/10/10 10:01:12;;;;;;;33.75;19.52;;;19.60;99.90;;;;;;5044843;28;20573;-74
2023/10/10 10:06:37;;;;;;;38.58;19.73;;;19.80;99.90;;;;;;5047774;28;20045;-74
2023/10/10 10:09:09;;;;;;;37.28;20.33;;;19.90;99.90;;;;;;5023850;28;20104;-74
2023/10/10 10:12:08;;;;;;;39.08;19.63;;;19.90;99.90;;;;;;5032684;28;20041;-74
2023/10/10 10:15:03;;;;;;;37.35;20.25;;;20.00;99.90;;;;;;5024328;28;20828;-74
2023/10/10 10:17:48;;;;;;;34.17;18.35;;;19.90;7.20;;;;;;5037745;28;20045;-74
2023/10/10 10:23:25;;;;;;;37.30;19.07;;;19.90;97.90;;;;;;5037313;28;20048;-75
2023/10/10 10:26:04;;;;;;;36.30;18.98;;;19.80;99.90;;;;;;5045199;28;20036;-74
2023/10/10 10:28:42;;;;;;;36.15;19.30;;;19.80;95.60;;;;;;5042526;28;20037;-75
2023/10/10 10:31:27;;;;;;;35.45;18.00;;;19.90;94.50;;;;;;5043760;28;20064;-74
2023/10/10 10:34:06;;;;;;;34.15;18.33;;;20.00;67.80;;;;;;5045561;28;20044;-74
2023/10/10 10:36:50;;;;;;;29.55;16.27;;;20.20;54.40;;;;;;5025188;28;20045;-75
2023/10/10 10:39:25;;;;;;;32.08;15.93;;;20.30;53.80;;;;;;5042671;28;20068;-75
2023/10/10 10:41:56;;;;;;;30.88;17.38;;;20.40;1.00;;;;;;5043769;28;20052;-75
2023/10/10 10:44:58;;;;;;;29.02;15.75;;;20.60;1.00;;;;;;5029222;28;20696;-75
2023/10/10 10:47:45;;;;;;;28.88;15.73;;;20.70;1.00;;;;;;5027372;28;20034;-75
2023/10/10 10:50:29;;;;;;;31.90;16.80;;;20.90;1.00;;;;;;5031064;28;20060;-75
2023/10/10 10:53:08;;;;;;;24.75;14.65;;;21.00;1.00;;;;;;5035572;28;20057;-75
2023/10/10 10:55:42;;;;;;;27.30;14.73;;;21.10;99.90;;;;;;5041020;28;20041;-75
2023/10/10 10:58:26;;;;;;;26.67;15.57;;;21.30;99.90;;;;;;5058231;28;20040;-75
2023/10/10 11:01:07;;;;;;;23.20;14.15;;;21.40;99.90;;;;;;5029771;28;20094;-75
2023/10/10 11:03:38;;;;;;;25.50;13.98;;;21.50;99.90;;;;;;5024048;28;20041;-75
2023/10/10 11:06:09;;;;;;;24.38;14.63;;;21.60;99.90;;;;;;5021020;28;20559;-74
2023/10/10 11:16:38;;;;;;;20.20;11.65;;;21.50;99.90;;;;;;5047888;28;20049;-75
2023/10/10 11:19:12;;;;;;;20.60;12.13;;;21.30;99.90;;;;;;5044425;28;20045;-75
2023/10/10 11:21:48;;;;;;;25.00;12.00;;;21.10;99.90;;;;;;5041762;28;20049;-75
2023/10/10 11:24:25;;;;;;;22.10;11.82;;;21.10;99.90;;;;;;5026197;28;20155;-76
2023/10/10 11:27:07;;;;;;;23.30;12.18;;;21.20;99.90;;;;;;5022081;28;20026;-75
2023/10/10 11:29:44;;;;;;;22.33;12.60;;;21.40;99.90;;;;;;5025145;28;20033;-75
2023/10/10 11:32:12;;;;;;;24.65;11.90;;;21.60;99.90;;;;;;5040949;28;20041;-75
2023/10/10 11:34:45;;;;;;;23.67;12.50;;;21.70;99.90;;;;;;5039728;28;20075;-75
2023/10/10 11:37:20;;;;;;;25.25;11.95;;;21.80;99.90;;;;;;5038603;28;20048;-75
2023/10/10 11:40:01;;;;;;;24.77;13.40;;;21.70;99.90;;;;;;5015312;28;20040;-75
2023/10/10 11:42:33;;;;;;;21.08;11.52;;;21.60;99.90;;;;;;5032670;28;20095;-75
2023/10/10 11:45:04;;;;;;;20.58;12.57;;;21.70;99.90;;;;;;5029941;28;20048;-75
2023/10/10 11:47:42;;;;;;;20.55;11.70;;;21.80;99.90;;;;;;5045899;28;20124;-75
2023/10/10 11:50:11;;;;;;;24.35;12.15;;;21.90;99.90;;;;;;5035088;28;20092;-75
2023/10/10 11:53:01;;;;;;;21.10;11.88;;;22.10;99.90;;;;;;5028782;28;20053;-75
2023/10/10 11:55:28;;;;;;;23.95;11.52;;;22.40;99.90;;;;;;5039460;28;20053;-75
2023/10/10 11:58:07;;;;;;;19.45;11.73;;;22.70;99.90;;;;;;5034716;28;20087;-75
2023/10/10 12:00:43;;;;;;;20.45;11.23;;;23.00;92.00;;;;;;5020557;28;20126;-75
2023/10/10 12:03:34;;;;;;;22.98;12.50;;;23.10;52.10;;;;;;5040683;28;20661;-75
2023/10/10 12:06:18;;;;;;;23.30;12.75;;;23.00;11.40;;;;;;5040177;28;20079;-75
2023/10/10 12:08:53;;;;;;;19.45;11.35;;;23.00;41.60;;;;;;5036956;28;20079;-75
2023/10/10 12:11:20;;;;;;;21.13;11.18;;;23.20;61.60;;;;;;5033149;28;20036;-75
2023/10/10 12:13:56;;;;;;;20.60;12.27;;;23.60;64.10;;;;;;5037300;28;20064;-75
2023/10/10 12:16:24;;;;;;;18.27;11.35;;;23.90;31.50;;;;;;5019984;28;20042;-75
2023/10/10 12:18:52;;;;;;;21.10;11.38;;;24.10;1.00;;;;;;5033585;28;20133;-75
2023/10/10 12:21:21;;;;;;;25.98;12.43;;;24.20;1.00;;;;;;5032470;28;20037;-75
2023/10/10 12:23:57;;;;;;;19.38;11.35;;;24.50;1.00;;;;;;5050022;28;20145;-76
2023/10/10 12:26:31;;;;;;;19.67;10.75;;;24.60;1.00;;;;;;5032524;28;20128;-75
2023/10/10 12:28:57;;;;;;;19.65;10.63;;;24.60;1.00;;;;;;5037413;28;20137;-75
2023/10/10 12:31:23;;;;;;;17.40;9.68;;;24.30;1.00;;;;;;5044388;28;20049;-75
2023/10/10 12:33:49;;;;;;;15.10;9.00;;;24.20;1.00;;;;;;5040540;28;20373;-75
2023/10/10 12:36:16;;;;;;;20.50;10.20;;;24.20;1.00;;;;;;5014359;28;20048;-75
2023/10/10 12:38:41;;;;;;;17.20;9.88;;;24.20;1.00;;;;;;5041115;28;20037;-76
2023/10/10 12:41:11;;;;;;;19.63;10.10;;;24.20;1.00;;;;;;5038084;28;20038;-75
2023/10/10 12:43:37;;;;;;;13.60;9.05;;;24.20;1.00;;;;;;5037721;28;20060;-75
2023/10/10 12:46:04;;;;;;;17.27;9.88;;;24.00;1.00;;;;;;5061855;28;20045;-75
2023/10/10 12:48:31;;;;;;;17.05;10.00;;;23.80;1.00;;;;;;5044610;28;20097;-76
2023/10/10 12:51:00;;;;;;;16.05;10.50;;;23.50;1.00;;;;;;5022286;28;20574;-75
2023/10/10 12:53:30;;;;;;;18.10;9.63;;;23.20;1.00;;;;;;5040505;28;20065;-76
2023/10/10 12:56:01;;;;;;;18.48;9.73;;;22.90;1.00;;;;;;5042822;28;20048;-76
2023/10/10 12:58:28;;;;;;;18.65;10.38;;;22.60;1.00;;;;;;5040610;28;20051;-76
2023/10/10 13:00:54;;;;;;;16.55;10.18;;;22.60;1.00;;;;;;5052257;28;20103;-76
2023/10/10 13:03:27;;;;;;;19.35;10.55;;;22.60;1.00;;;;;;5043695;28;20507;-75
2023/10/10 13:05:58;;;;;;;16.33;9.82;;;22.50;1.00;;;;;;5047764;28;20042;-76
2023/10/10 13:08:48;;;;;;;17.25;10.00;;;22.30;1.00;;;;;;5019450;28;20040;-76
2023/10/10 13:11:15;;;;;;;17.05;10.43;;;22.20;1.00;;;;;;5024815;28;20138;-76
2023/10/10 13:13:59;;;;;;;21.17;9.63;;;22.10;10.80;;;;;;5015538;28;20033;-77
2023/10/10 13:16:27;;;;;;;17.73;9.77;;;22.00;9.10;;;;;;5027653;28;20044;-75
2023/10/10 13:18:55;;;;;;;16.38;9.02;;;22.00;28.50;;;;;;5029468;28;20534;-76
2023/10/10 13:21:22;;;;;;;18.33;9.73;;;22.00;25.30;;;;;;5039178;28;20040;-76
2023/10/10 13:23:49;;;;;;;17.13;9.95;;;22.00;38.50;;;;;;5031751;28;20038;-75
2023/10/10 13:26:16;;;;;;;16.52;9.52;;;22.00;32.50;;;;;;5015274;28;20452;-76
2023/10/10 13:28:46;;;;;;;16.35;10.07;;;21.90;29.90;;;;;;5057022;28;20111;-76
2023/10/10 13:31:19;;;;;;;20.13;10.23;;;21.80;48.70;;;;;;5042944;28;20064;-76
2023/10/10 13:33:45;;;;;;;19.50;9.70;;;21.80;50.50;;;;;;5021414;28;20041;-76
2023/10/10 13:36:15;;;;;;;18.75;9.75;;;21.90;75.30;;;;;;5029688;28;20044;-77
2023/10/10 13:38:48;;;;;;;20.60;10.98;;;21.90;68.20;;;;;;5045613;28;20041;-75
2023/10/10 13:41:22;;;;;;;20.02;10.75;;;21.90;64.70;;;;;;5024088;28;20127;-76
2023/10/10 13:43:51;;;;;;;19.35;10.45;;;21.80;44.40;;;;;;5030613;28;20045;-75
2023/10/10 13:46:19;;;;;;;16.63;10.02;;;21.60;60.00;;;;;;5030898;28;20115;-76
2023/10/10 13:48:47;;;;;;;18.40;10.05;;;21.50;63.90;;;;;;5036301;28;20033;-76
2023/10/10 13:51:14;;;;;;;20.50;10.98;;;21.50;61.20;;;;;;5029064;28;20033;-76
2023/10/10 13:53:43;;;;;;;17.38;10.35;;;21.50;56.20;;;;;;5032926;28;20056;-76
2023/10/10 13:56:10;;;;;;;18.90;10.55;;;21.50;36.40;;;;;;5057240;28;20050;-76
2023/10/10 13:58:37;;;;;;;18.23;10.88;;;21.40;41.80;;;;;;5018130;28;20045;-76
2023/10/10 14:01:18;;;;;;;17.10;10.48;;;21.40;46.90;;;;;;5030896;28;20471;-77
2023/10/10 14:03:56;;;;;;;17.67;9.82;;;21.40;57.50;;;;;;5042999;28;20045;-77
2023/10/10 14:06:26;;;;;;;17.90;10.05;;;21.40;64.30;;;;;;5064269;28;20041;-76
2023/10/10 14:08:52;;;;;;;15.52;9.43;;;21.50;68.10;;;;;;5047310;28;20033;-76
2023/10/10 14:11:21;;;;;;;18.27;9.98;;;21.60;64.00;;;;;;5030674;28;20441;-76
2023/10/10 14:13:48;;;;;;;21.83;10.10;;;21.70;62.10;;;;;;5047256;28;20453;-76
2023/10/10 14:16:14;;;;;;;18.42;10.23;;;21.80;36.60;;;;;;5042473;28;20164;-77
2023/10/10 14:18:43;;;;;;;17.25;9.82;;;21.80;29.30;;;;;;5032714;28;20689;-77
2023/10/10 14:21:12;;;;;;;17.05;9.50;;;21.80;27.40;;;;;;5041449;28;20116;-76
2023/10/10 14:23:39;;;;;;;15.45;9.70;;;21.70;23.10;;;;;;5042150;28;20042;-74
2023/10/10 14:26:25;;;;;;;17.92;10.50;;;21.70;26.50;;;;;;5030297;28;20122;-77
2023/10/10 14:28:55;;;;;;;;;;;21.60;21.30;;;;;;5026500;28;20041;-76
2023/10/10 14:31:22;;;;;;;17.08;9.10;;;21.60;24.20;;;;;;5032151;28;19930;-77
2023/10/10 14:33:49;;;;;;;16.60;9.00;;;21.50;56.40;;;;;;5028473;28;20121;-77
2023/10/10 14:36:15;;;;;;;17.85;9.43;;;21.40;61.90;;;;;;5033103;28;20127;-77
2023/10/10 14:38:44;;;;;;;15.75;9.02;;;21.30;67.60;;;;;;5046793;28;20563;-75
2023/10/10 14:41:17;;;;;;;16.88;10.18;;;21.30;74.90;;;;;;5046650;28;20036;-75
2023/10/10 14:43:50;;;;;;;15.32;9.20;;;21.10;82.90;;;;;;5035747;28;20119;-76
2023/10/10 14:46:22;;;;;;;18.10;9.90;;;21.00;97.00;;;;;;5031453;28;20487;-77
2023/10/10 14:51:37;;;;;;;16.73;9.45;;;20.90;88.30;;;;;;5044389;28;20040;-76
2023/10/10 14:54:16;;;;;;;19.20;10.73;;;20.90;94.30;;;;;;5058270;28;20034;-77
2023/10/10 14:56:45;;;;;;;18.88;9.88;;;20.80;63.50;;;;;;5028472;28;20082;-76
2023/10/10 14:59:17;;;;;;;16.88;9.30;;;20.70;92.30;;;;;;5036427;28;20044;-75
2023/10/10 15:01:50;;;;;;;19.90;10.23;;;20.70;97.40;;;;;;5036243;28;20029;-75
2023/10/10 15:04:20;;;;;;;16.13;9.30;;;20.70;97.50;;;;;;5048594;28;20045;-76
2023/10/10 15:06:47;;;;;;;15.48;9.70;;;20.70;99.90;;;;;;5032109;28;20041;-75
2023/10/10 15:09:20;;;;;;;15.27;8.75;;;20.70;99.90;;;;;;5020791;28;20069;-76
2023/10/10 15:11:47;;;;;;;19.25;9.55;;;20.70;99.90;;;;;;5041509;28;20399;-76
2023/10/10 15:14:13;;;;;;;15.25;8.77;;;20.60;99.90;;;;;;5052071;28;20775;-75
2023/10/10 15:16:41;;;;;;;19.77;9.05;;;20.40;99.90;;;;;;5046548;28;20036;-75
2023/10/10 15:19:08;;;;;;;17.52;9.13;;;20.40;99.50;;;;;;5030362;28;20037;-76
2023/10/10 15:21:35;;;;;;;16.70;9.65;;;20.30;99.90;;;;;;5034531;28;20033;-75
2023/10/10 15:24:01;;;;;;;18.45;9.27;;;20.20;99.90;;;;;;5046088;28;20067;-75
2023/10/10 15:26:27;;;;;;;17.90;8.80;;;20.10;99.90;;;;;;5039521;28;20124;-75
2023/10/10 15:28:59;;;;;;;13.70;9.00;;;20.00;99.90;;;;;;5042685;28;20117;-77
2023/10/10 15:31:30;;;;;;;14.65;8.82;;;19.90;99.90;;;;;;5043078;28;20117;-77
2023/10/10 15:33:57;;;;;;;16.90;9.77;;;19.80;99.90;;;;;;5030380;28;20087;-76
2023/10/10 15:36:30;;;;;;;18.38;10.18;;;19.70;99.90;;;;;;5054557;28;20133;-77